createdAt,value
2018-07-27T00:00:38.665Z,1.90
2018-07-27T00:05:42.547Z,1.87
2018-07-27T00:10:45.881Z,1.90
2018-07-27T00:15:49.205Z,2.03
2018-07-27T00:20:52.609Z,1.93
2018-07-27T00:25:55.998Z,1.97
2018-07-27T00:30:59.396Z,1.83
2018-07-27T00:36:02.756Z,2.10
2018-07-27T00:41:06.314Z,1.67
2018-07-27T00:46:09.716Z,1.60
2018-07-27T00:51:13.076Z,2.00
2018-07-27T00:56:16.424Z,1.70
2018-07-27T01:01:19.816Z,1.87
2018-07-27T01:06:23.228Z,1.67
2018-07-27T01:11:26.682Z,1.83
2018-07-27T01:16:30.058Z,1.83
2018-07-27T01:21:33.444Z,2.10
2018-07-27T01:26:36.915Z,2.10
2018-07-27T01:31:40.278Z,2.07
2018-07-27T01:36:43.671Z,2.00
2018-07-27T01:41:47.044Z,1.90
2018-07-27T01:46:50.472Z,2.00
2018-07-27T01:51:53.842Z,2.30
2018-07-27T01:56:57.784Z,2.00
2018-07-27T02:02:01.141Z,2.00
2018-07-27T02:07:04.591Z,2.10
2018-07-27T02:12:08.021Z,1.97
2018-07-27T02:17:11.404Z,1.90
2018-07-27T02:22:14.752Z,1.80
2018-07-27T02:27:18.157Z,2.30
2018-07-27T02:32:21.564Z,2.10
2018-07-27T02:37:24.922Z,2.10
2018-07-27T02:42:28.262Z,2.20
2018-07-27T02:47:31.623Z,2.03
2018-07-27T02:52:34.964Z,2.50
2018-07-27T02:57:38.294Z,1.97
2018-07-27T03:02:41.602Z,2.20
2018-07-27T03:07:44.999Z,2.30
2018-07-27T03:12:48.336Z,2.03
2018-07-27T03:17:51.705Z,2.10
2018-07-27T03:22:55.033Z,2.20
2018-07-27T03:27:58.448Z,1.83
2018-07-27T03:33:01.805Z,2.10
2018-07-27T03:38:05.295Z,2.30
2018-07-27T03:43:08.640Z,2.13
2018-07-27T03:48:11.997Z,2.60
2018-07-27T03:53:15.359Z,2.00
2018-07-27T03:58:18.706Z,2.20
2018-07-27T04:03:22.100Z,2.33
2018-07-27T04:08:25.433Z,2.37
2018-07-27T04:13:28.796Z,2.30
2018-07-27T04:18:32.133Z,1.93
2018-07-27T04:23:35.534Z,2.20
2018-07-27T04:28:38.593Z,2.20
2018-07-27T04:33:41.942Z,2.20
2018-07-27T04:38:45.288Z,2.40
2018-07-27T04:43:48.705Z,2.13
2018-07-27T04:48:52.037Z,2.50
2018-07-27T04:53:55.353Z,2.20
2018-07-27T04:58:58.709Z,1.97
2018-07-27T05:04:02.277Z,2.10
2018-07-27T05:09:12.697Z,2.23
2018-07-27T05:14:16.054Z,2.40
2018-07-27T05:19:19.378Z,2.20
2018-07-27T05:24:22.716Z,2.10
2018-07-27T05:29:26.095Z,2.53
2018-07-27T05:34:29.432Z,2.77
2018-07-27T05:39:32.799Z,2.53
2018-07-27T05:44:36.133Z,2.80
2018-07-27T05:49:39.688Z,2.83
2018-07-27T05:54:43.058Z,2.47
2018-07-27T05:59:46.406Z,2.37
2018-07-27T06:04:49.782Z,2.50
2018-07-27T06:09:53.193Z,2.20
2018-07-27T06:14:56.558Z,2.40
2018-07-27T06:19:59.952Z,2.60
2018-07-27T06:25:03.338Z,3.30
2018-07-27T06:30:06.791Z,3.07
2018-07-27T06:35:10.063Z,2.93
2018-07-27T06:40:13.434Z,3.17
2018-07-27T06:45:16.796Z,2.87
2018-07-27T06:50:20.249Z,2.90
2018-07-27T06:55:23.612Z,3.70
2018-07-27T07:00:26.964Z,2.80
2018-07-27T07:05:30.335Z,2.93
2018-07-27T07:10:33.986Z,3.30
2018-07-27T07:15:37.346Z,3.00
2018-07-27T07:20:40.738Z,3.57
2018-07-27T07:25:44.205Z,3.10
2018-07-27T07:30:47.468Z,3.17
2018-07-27T07:35:50.816Z,3.25
2018-07-27T07:40:54.248Z,3.00
2018-07-27T07:45:57.609Z,3.22
2018-07-27T07:51:00.976Z,2.95
2018-07-27T07:56:04.376Z,3.35
2018-07-27T08:01:07.771Z,3.30
2018-07-27T08:06:11.100Z,3.15
2018-07-27T08:11:14.505Z,3.12
2018-07-27T08:16:17.825Z,3.45
2018-07-27T08:21:26.237Z,3.47
2018-07-27T08:26:56.492Z,3.40
2018-07-27T08:32:00.340Z,2.87
2018-07-27T08:37:03.713Z,2.92
2018-07-27T08:42:07.143Z,3.15
2018-07-27T08:47:13.572Z,2.80
2018-07-27T08:52:17.017Z,3.42
2018-07-27T08:57:20.455Z,3.45
2018-07-27T09:02:23.818Z,3.27
2018-07-27T09:07:27.167Z,3.33
2018-07-27T09:12:30.603Z,3.42
2018-07-27T09:17:33.978Z,3.50
2018-07-27T09:22:37.386Z,3.70
2018-07-27T09:27:40.820Z,3.50
2018-07-27T09:32:44.207Z,3.17
2018-07-27T09:37:47.543Z,3.75
2018-07-27T09:42:50.934Z,3.90
2018-07-27T09:47:54.328Z,3.80
2018-07-27T09:52:57.745Z,3.65
2018-07-27T09:58:01.168Z,3.60
2018-07-27T10:03:04.537Z,3.27
2018-07-27T10:08:08.021Z,4.03
2018-07-27T10:13:11.408Z,3.55
2018-07-27T10:18:14.767Z,4.00
2018-07-27T10:23:18.132Z,3.80
2018-07-27T10:28:21.505Z,4.60
2018-07-27T10:33:24.920Z,3.40
2018-07-27T10:38:28.268Z,3.40
2018-07-27T10:43:31.644Z,3.25
2018-07-27T10:48:35.072Z,2.92
2018-07-27T10:53:38.450Z,3.42
2018-07-27T10:58:41.965Z,3.33
2018-07-27T11:03:45.451Z,4.00
2018-07-27T11:08:48.878Z,3.20
2018-07-27T11:13:52.204Z,3.30
2018-07-27T11:18:55.599Z,3.20
2018-07-27T11:23:59.048Z,3.30
2018-07-27T11:29:02.456Z,2.92
2018-07-27T11:34:05.917Z,3.02
2018-07-27T11:39:10.213Z,4.08
2018-07-27T11:44:15.149Z,3.83
2018-07-27T11:49:18.758Z,3.40
2018-07-27T11:54:22.276Z,3.20
2018-07-27T11:59:25.769Z,2.90
2018-07-27T12:04:29.420Z,4.00
2018-07-27T12:09:33.021Z,3.15
2018-07-27T12:14:36.644Z,3.30
2018-07-27T12:19:40.093Z,2.95
2018-07-27T12:24:43.577Z,2.90
2018-07-27T12:29:47.153Z,3.77
2018-07-27T12:34:50.785Z,3.60
2018-07-27T12:39:54.105Z,3.40
2018-07-27T12:44:57.777Z,3.12
2018-07-27T12:50:01.378Z,3.27
2018-07-27T12:55:05.533Z,2.95
2018-07-27T13:00:09.925Z,3.05
2018-07-27T13:05:13.690Z,2.87
2018-07-27T13:10:18.331Z,3.52
2018-07-27T13:15:21.917Z,3.58
2018-07-27T13:20:30.871Z,3.00
2018-07-27T13:25:34.542Z,2.75
2018-07-27T13:30:38.910Z,2.95
2018-07-27T13:41:08.260Z,2.55
2018-07-27T13:46:11.920Z,2.98
2018-07-27T13:56:46.201Z,3.08
2018-07-27T14:01:50.310Z,2.70
2018-07-27T14:06:55.296Z,3.00
2018-07-27T14:11:59.122Z,3.50
2018-07-27T14:17:05.080Z,3.80
2018-07-27T14:22:08.792Z,2.90
2018-07-27T14:27:12.318Z,2.92
2018-07-27T14:32:15.845Z,2.87
2018-07-27T14:37:19.329Z,2.67
2018-07-27T14:42:22.804Z,3.27
2018-07-27T14:47:30.073Z,2.70
2018-07-27T14:52:33.717Z,3.15
2018-07-27T14:57:37.090Z,3.50
2018-07-27T15:02:40.522Z,2.95
2018-07-27T15:07:43.988Z,2.55
2018-07-27T15:12:47.636Z,2.77
2018-07-27T15:17:51.144Z,2.87
2018-07-27T15:22:54.713Z,3.62
2018-07-27T15:27:58.195Z,2.80
2018-07-27T15:33:01.729Z,2.65
2018-07-27T15:38:05.405Z,2.80
2018-07-27T15:43:08.912Z,3.08
2018-07-27T15:48:12.464Z,2.80
2018-07-27T15:53:15.911Z,2.90
2018-07-27T15:58:19.415Z,2.58
2018-07-27T16:03:23.004Z,2.80
2018-07-27T16:08:26.602Z,2.80
2018-07-27T16:13:30.162Z,2.85
2018-07-27T16:18:33.628Z,3.15
2018-07-27T16:23:36.756Z,3.08
2018-07-27T16:28:40.350Z,3.10
2018-07-27T16:33:43.618Z,3.08
2018-07-27T16:38:47.141Z,2.80
2018-07-27T16:43:50.737Z,2.83
2018-07-27T16:48:54.213Z,2.83
2018-07-27T16:53:57.738Z,2.90
2018-07-27T16:59:01.170Z,2.60
2018-07-27T17:04:04.672Z,2.47
2018-07-27T17:09:09.562Z,2.45
2018-07-27T17:14:13.013Z,2.62
2018-07-27T17:19:16.440Z,2.40
2018-07-27T17:24:19.918Z,2.83
2018-07-27T17:29:23.438Z,2.52
2018-07-27T17:34:26.908Z,2.90
2018-07-27T17:39:30.323Z,2.92
2018-07-27T17:44:33.765Z,2.72
2018-07-27T17:49:37.204Z,2.83
2018-07-27T17:54:41.626Z,2.67
2018-07-27T17:59:45.207Z,3.00
2018-07-27T18:04:48.599Z,2.70
2018-07-27T18:09:52.212Z,2.65
2018-07-27T18:14:55.653Z,2.55
2018-07-27T18:19:59.072Z,2.77
2018-07-27T18:25:02.525Z,2.58
2018-07-27T18:30:06.279Z,2.65
2018-07-27T18:35:10.204Z,2.35
2018-07-27T18:40:13.637Z,2.65
2018-07-27T18:45:17.066Z,2.33
2018-07-27T18:50:20.453Z,3.00
2018-07-27T18:55:23.832Z,3.70
2018-07-27T19:00:27.261Z,3.20
2018-07-27T19:05:30.673Z,2.70
2018-07-27T19:10:34.084Z,2.85
2018-07-27T19:15:37.473Z,3.08
2018-07-27T19:20:40.860Z,3.20
2018-07-27T19:25:44.298Z,3.30
2018-07-27T19:30:47.731Z,2.92
2018-07-27T19:35:51.184Z,3.00
2018-07-27T19:40:54.596Z,2.58
2018-07-27T19:45:57.986Z,2.83
2018-07-27T19:51:01.413Z,3.10
2018-07-27T19:56:05.128Z,2.87
2018-07-27T20:01:08.559Z,3.05
2018-07-27T20:06:12.060Z,2.75
2018-07-27T20:11:15.472Z,3.02
2018-07-27T20:16:18.871Z,2.80
2018-07-27T20:21:22.512Z,2.65
2018-07-27T20:26:25.938Z,2.65
2018-07-27T20:31:29.296Z,2.83
2018-07-27T20:36:32.694Z,2.70
2018-07-27T20:41:36.086Z,2.65
2018-07-27T20:46:39.524Z,3.25
2018-07-27T20:51:42.901Z,3.02
2018-07-27T20:56:46.319Z,3.10
2018-07-27T21:01:49.729Z,2.98
2018-07-27T21:06:53.127Z,2.52
2018-07-27T21:11:57.377Z,2.80
2018-07-27T21:17:00.795Z,3.10
2018-07-27T21:22:04.297Z,2.72
2018-07-27T21:27:07.692Z,3.05
2018-07-27T21:32:11.159Z,2.90
2018-07-27T21:37:14.556Z,3.15
2018-07-27T21:42:17.949Z,2.75
2018-07-27T21:47:21.363Z,3.15
2018-07-27T21:52:24.730Z,3.58
2018-07-27T21:57:27.852Z,3.58
2018-07-27T22:02:31.220Z,3.00
2018-07-27T22:07:34.713Z,2.90
2018-07-27T22:12:38.101Z,3.02
2018-07-27T22:17:41.509Z,3.25
2018-07-27T22:22:44.885Z,3.05
2018-07-27T22:27:48.787Z,3.20
2018-07-27T22:32:52.160Z,3.40
2018-07-27T22:37:55.533Z,2.77
2018-07-27T22:42:58.916Z,3.12
2018-07-27T22:48:02.313Z,2.87
2018-07-27T22:53:05.681Z,3.12
2018-07-27T22:58:09.140Z,2.85
2018-07-27T23:03:12.580Z,2.65
2018-07-27T23:08:15.966Z,2.85
2018-07-27T23:13:19.341Z,2.92
2018-07-27T23:18:22.720Z,3.17
2018-07-27T23:23:26.089Z,3.08
2018-07-27T23:28:29.452Z,2.83
2018-07-27T23:33:32.797Z,2.50
2018-07-27T23:38:36.177Z,2.92
2018-07-27T23:43:39.543Z,2.40
2018-07-27T23:48:42.929Z,2.62
2018-07-27T23:53:46.325Z,2.95
2018-07-27T23:58:49.725Z,2.60
